Time;durP1;ratioP1;P1;durP2;ratioP2;P2;SDS_P1;SDS_P2;PMS_P1;PMS_P2;Temp;Humidity;BMP_temperature;BMP_pressure;BME280_temperature;BME280_humidity;BME280_pressure;Samples;Min_cycle;Max_cycle;Signal;HPM_P1;HPM_P2
2022/03/05 00:03:19;;;;;;;36.50;22.70;;;;;;;3.76;61.83;99413.81;233449;1217;139157;-60
2022/03/05 00:08:23;;;;;;;40.50;23.60;;;;;;;3.74;62.10;99409.66;233324;1217;139591;-61
2022/03/05 00:13:26;;;;;;;36.00;22.60;;;;;;;3.71;62.08;99416.95;233242;1217;138842;-64
2022/03/05 00:18:29;;;;;;;38.40;22.30;;;;;;;3.68;62.15;99410.70;233236;1218;138406;-61
2022/03/05 00:23:32;;;;;;;36.60;22.00;;;;;;;3.65;62.14;99412.21;233499;1217;139334;-61
2022/03/05 00:28:35;;;;;;;39.30;23.10;;;;;;;3.64;62.28;99414.51;233418;1217;139574;-63
2022/03/05 00:33:38;;;;;;;35.80;22.40;;;;;;;3.62;62.32;99414.72;233264;1217;140002;-64
2022/03/05 00:38:41;;;;;;;39.30;22.70;;;;;;;3.59;62.45;99410.95;233430;1217;139608;-62
2022/03/05 00:43:44;;;;;;;38.20;22.90;;;;;;;3.60;62.41;99412.87;233276;1217;138453;-62
2022/03/05 00:48:47;;;;;;;37.30;23.00;;;;;;;3.64;62.56;99411.17;233439;1217;141468;-60
2022/03/05 00:53:50;;;;;;;38.40;21.90;;;;;;;3.69;62.50;99405.95;233379;1217;139661;-61
2022/03/05 00:58:53;;;;;;;43.10;23.90;;;;;;;3.74;62.53;99407.18;233411;1217;138862;-61
2022/03/05 01:03:58;;;;;;;36.80;23.20;;;;;;;3.75;62.42;99403.84;233497;1216;138648;-60
2022/03/05 01:09:01;;;;;;;35.00;22.30;;;;;;;3.73;62.42;99407.04;233526;1217;138871;-62
2022/03/05 01:14:05;;;;;;;42.10;23.50;;;;;;;3.70;62.52;99408.02;233438;1217;139894;-60
2022/03/05 01:19:08;;;;;;;37.00;22.20;;;;;;;3.69;62.45;99404.71;233333;1217;139077;-61
2022/03/05 01:24:11;;;;;;;38.80;23.20;;;;;;;3.65;62.55;99400.42;233406;1217;138969;-61
2022/03/05 01:29:14;;;;;;;36.40;22.10;;;;;;;3.64;62.55;99402.41;233550;1217;138291;-63
2022/03/05 01:34:17;;;;;;;34.70;21.90;;;;;;;3.60;62.57;99402.68;233471;1217;138842;-62
2022/03/05 01:39:20;;;;;;;43.00;23.10;;;;;;;3.58;62.62;99400.29;233365;1216;139082;-62
2022/03/05 01:44:23;;;;;;;37.80;22.40;;;;;;;3.55;62.82;99401.95;233367;1217;138990;-61
2022/03/05 01:49:27;;;;;;;40.10;23.70;;;;;;;3.54;62.72;99397.95;233219;1217;138905;-60
2022/03/05 01:54:30;;;;;;;39.80;23.10;;;;;;;3.54;62.91;99394.60;233372;1217;139910;-62
2022/03/05 01:59:34;;;;;;;35.90;22.80;;;;;;;3.57;62.82;99394.52;233531;1217;139473;-60
2022/03/05 02:04:37;;;;;;;38.90;23.00;;;;;;;3.62;62.78;99394.56;233155;1217;139628;-60
2022/03/05 02:09:40;;;;;;;42.50;24.20;;;;;;;3.64;62.93;99393.62;233309;1217;138968;-61
2022/03/05 02:14:43;;;;;;;37.80;22.80;;;;;;;3.66;62.76;99391.80;233470;1217;138488;-59
2022/03/05 02:19:47;;;;;;;38.90;22.40;;;;;;;3.64;62.68;99393.97;233449;1217;138522;-59
2022/03/05 02:24:52;;;;;;;35.60;22.20;;;;;;;3.63;62.77;99393.83;233373;1217;138760;-60
2022/03/05 02:29:57;;;;;;;40.00;22.40;;;;;;;3.60;62.81;99390.75;233307;1217;138406;-60
2022/03/05 02:35:00;;;;;;;33.80;21.50;;;;;;;3.57;62.87;99395.40;233306;1217;139199;-62
2022/03/05 02:40:03;;;;;;;36.60;22.60;;;;;;;3.55;63.04;99402.81;233346;1217;139847;-59
2022/03/05 02:45:06;;;;;;;36.20;21.60;;;;;;;3.55;62.98;99404.04;233385;1217;138575;-61
2022/03/05 02:50:09;;;;;;;36.60;21.20;;;;;;;3.54;62.92;99409.86;233291;1217;138644;-61
2022/03/05 02:55:12;;;;;;;31.50;20.60;;;;;;;3.50;62.93;99411.55;233386;1217;139598;-61
2022/03/05 03:00:16;;;;;;;38.10;21.80;;;;;;;3.45;62.90;99415.55;233130;1219;138463;-62
2022/03/05 03:05:21;;;;;;;37.00;22.50;;;;;;;3.45;63.04;99419.75;233317;1219;138770;-60
2022/03/05 03:10:24;;;;;;;36.60;22.60;;;;;;;3.48;62.92;99424.92;233338;1217;139155;-61
2022/03/05 03:15:27;;;;;;;38.80;22.80;;;;;;;3.51;62.94;99426.79;233346;1219;139216;-60
2022/03/05 03:20:30;;;;;;;37.70;22.60;;;;;;;3.54;62.96;99423.02;233189;1217;139535;-60
2022/03/05 03:25:34;;;;;;;36.20;21.60;;;;;;;3.54;63.12;99428.81;233396;1217;138939;-60
2022/03/05 03:30:37;;;;;;;33.90;20.30;;;;;;;3.50;62.85;99426.81;233290;1217;138731;-62
2022/03/05 03:35:40;;;;;;;37.90;21.80;;;;;;;3.46;63.01;99425.52;233161;1217;139353;-60
2022/03/05 03:40:43;;;;;;;34.80;21.40;;;;;;;3.43;63.06;99425.60;233352;1217;139597;-61
2022/03/05 03:45:46;;;;;;;35.40;22.20;;;;;;;3.41;63.01;99426.88;233380;1217;139058;-62
2022/03/05 03:50:50;;;;;;;99.50;72.80;;;;;;;3.38;62.97;99429.41;233459;1217;138465;-60
2022/03/05 03:55:53;;;;;;;51.60;30.40;;;;;;;3.49;63.49;99429.30;233335;1217;138400;-61
2022/03/05 04:00:56;;;;;;;37.50;21.10;;;;;;;3.59;63.32;99433.58;233337;1217;140361;-60
2022/03/05 04:06:00;;;;;;;33.50;20.30;;;;;;;3.61;62.79;99429.85;233283;1217;139058;-60
2022/03/05 04:11:04;;;;;;;33.50;20.60;;;;;;;3.57;62.85;99426.24;233348;1217;138864;-61
2022/03/05 04:16:07;;;;;;;34.30;20.50;;;;;;;3.54;62.71;99427.21;233380;1217;138720;-62
2022/03/05 04:21:10;;;;;;;32.10;19.30;;;;;;;3.50;62.72;99433.83;233634;1217;139068;-62
2022/03/05 04:26:13;;;;;;;31.20;18.30;;;;;;;3.47;62.76;99436.01;233240;1219;138842;-63
2022/03/05 04:31:16;;;;;;;296.10;192.50;;;;;;;3.45;62.67;99439.23;233337;1217;140897;-64
2022/03/05 04:36:19;;;;;;;33.10;20.00;;;;;;;3.51;62.86;99440.48;233402;1217;139886;-63
2022/03/05 04:41:22;;;;;;;29.60;18.80;;;;;;;3.47;62.50;99447.93;233444;1217;140474;-61
2022/03/05 04:46:26;;;;;;;29.70;17.70;;;;;;;3.40;62.56;99452.67;233214;1220;139153;-66
2022/03/05 04:51:30;;;;;;;28.60;17.50;;;;;;;3.32;62.41;99458.16;233144;1219;138902;-65
2022/03/05 04:56:33;;;;;;;28.20;17.30;;;;;;;3.26;62.51;99462.52;233404;1217;139133;-62
2022/03/05 05:01:37;;;;;;;27.30;17.30;;;;;;;3.18;62.51;99463.78;233379;1217;138834;-62
2022/03/05 05:06:40;;;;;;;29.60;16.90;;;;;;;3.12;62.43;99467.09;233304;1217;138743;-63
2022/03/05 05:11:43;;;;;;;29.70;17.20;;;;;;;3.06;62.47;99467.92;233254;1219;138546;-63
2022/03/05 05:16:46;;;;;;;28.40;17.60;;;;;;;3.01;62.47;99471.37;233261;1217;138490;-63
2022/03/05 05:21:49;;;;;;;28.10;16.50;;;;;;;3.01;62.57;99475.05;233423;1217;138996;-63
2022/03/05 05:26:53;;;;;;;27.80;16.60;;;;;;;3.05;62.59;99483.73;233433;1217;139560;-63
2022/03/05 05:31:57;;;;;;;23.90;16.30;;;;;;;3.07;62.70;99486.27;233465;1217;140601;-65
2022/03/05 05:37:00;;;;;;;31.80;15.40;;;;;;;3.10;62.48;99489.04;232938;1217;138538;-64
2022/03/05 05:42:04;;;;;;;24.50;15.10;;;;;;;3.10;62.33;99487.13;233425;1217;138269;-63
2022/03/05 05:47:07;;;;;;;25.70;15.40;;;;;;;3.07;62.33;99497.16;233265;1217;139701;-63
2022/03/05 05:52:10;;;;;;;25.40;14.00;;;;;;;3.04;62.23;99499.52;233373;1217;139236;-61
2022/03/05 05:57:15;;;;;;;27.40;15.90;;;;;;;3.01;62.32;99501.17;233482;1217;140538;-60
2022/03/05 06:02:18;;;;;;;23.50;14.30;;;;;;;2.99;62.16;99514.73;233348;1217;138861;-60
2022/03/05 06:07:21;;;;;;;23.00;14.40;;;;;;;2.95;62.12;99517.08;233386;1217;139025;-60
2022/03/05 06:12:25;;;;;;;22.50;13.80;;;;;;;2.93;62.01;99517.49;233334;1217;138844;-60
2022/03/05 06:17:27;;;;;;;23.20;14.30;;;;;;;2.90;62.18;99519.30;233300;1219;140349;-58
2022/03/05 06:22:30;;;;;;;24.50;13.80;;;;;;;2.89;62.06;99520.56;233308;1217;139025;-61
2022/03/05 06:27:34;;;;;;;20.60;13.30;;;;;;;2.88;61.99;99529.52;233438;1217;139069;-63
2022/03/05 06:32:37;;;;;;;23.00;13.50;;;;;;;2.86;61.91;99536.59;233443;1217;138820;-62
2022/03/05 06:37:40;;;;;;;22.60;13.20;;;;;;;2.83;61.96;99538.21;233397;1217;138910;-62
2022/03/05 06:42:45;;;;;;;23.00;13.80;;;;;;;2.83;61.90;99541.20;233388;1217;138830;-63
2022/03/05 06:47:48;;;;;;;21.10;13.30;;;;;;;2.85;61.94;99546.42;233317;1217;138765;-60
2022/03/05 06:52:51;;;;;;;26.60;13.30;;;;;;;2.83;61.97;99553.99;233288;1217;138775;-61
2022/03/05 06:57:59;;;;;;;22.30;13.90;;;;;;;2.85;62.00;99553.77;233331;1215;139159;-62
2022/03/05 07:03:03;;;;;;;23.10;13.60;;;;;;;2.91;62.03;99552.23;233369;1219;138973;-59
2022/03/05 07:08:07;;;;;;;23.90;14.70;;;;;;;2.98;61.78;99552.07;233225;1219;139745;-63
2022/03/05 07:13:10;;;;;;;24.00;14.40;;;;;;;3.05;61.99;99556.81;233288;1219;139449;-62
2022/03/05 07:18:13;;;;;;;27.20;15.40;;;;;;;3.11;61.77;99555.81;233211;1218;139534;-61
2022/03/05 07:23:16;;;;;;;24.70;14.80;;;;;;;3.18;61.80;99559.50;233397;1217;139528;-61
2022/03/05 07:28:19;;;;;;;22.00;13.50;;;;;;;3.25;61.89;99556.71;233261;1217;138623;-62
2022/03/05 07:33:22;;;;;;;21.10;12.80;;;;;;;3.30;61.78;99560.77;233450;1218;138244;-62
2022/03/05 07:38:25;;;;;;;19.90;12.80;;;;;;;3.37;61.81;99562.89;233173;1217;139580;-62
2022/03/05 07:43:28;;;;;;;26.20;12.80;;;;;;;3.42;61.50;99567.87;233324;1217;139668;-63
2022/03/05 07:48:32;;;;;;;22.80;12.30;;;;;;;3.46;61.21;99570.20;233250;1217;138919;-62
2022/03/05 07:53:35;;;;;;;21.20;11.30;;;;;;;3.49;61.30;99572.77;233305;1217;138478;-62
2022/03/05 07:58:38;;;;;;;17.80;10.40;;;;;;;3.52;60.90;99574.80;233293;1217;140607;-63
2022/03/05 08:03:41;;;;;;;15.50;9.50;;;;;;;3.56;60.82;99582.43;233346;1218;138468;-63
2022/03/05 08:08:44;;;;;;;15.90;9.70;;;;;;;3.61;60.66;99585.27;233438;1217;138583;-62
2022/03/05 08:13:47;;;;;;;10.70;7.70;;;;;;;3.68;60.35;99587.39;233259;1218;138961;-61
2022/03/05 08:18:50;;;;;;;15.30;9.00;;;;;;;3.72;60.09;99587.30;233354;1217;138834;-59
2022/03/05 08:23:55;;;;;;;16.30;9.00;;;;;;;3.74;60.15;99584.59;233345;1217;138711;-61
2022/03/05 08:28:58;;;;;;;12.20;7.50;;;;;;;3.80;59.65;99582.70;232830;1217;138445;-63
2022/03/05 08:34:04;;;;;;;12.00;7.40;;;;;;;3.86;59.55;99580.59;233390;1217;138526;-64
2022/03/05 08:39:07;;;;;;;13.80;8.00;;;;;;;3.87;59.05;99577.77;233528;1217;138902;-61
2022/03/05 08:44:10;;;;;;;14.20;7.70;;;;;;;3.84;58.73;99584.52;233277;1217;139346;-62
2022/03/05 08:49:14;;;;;;;10.40;7.00;;;;;;;3.81;58.47;99588.83;233422;1217;138851;-61
2022/03/05 08:54:20;;;;;;;12.60;6.90;;;;;;;3.79;58.12;99588.88;233376;1217;139016;-62
2022/03/05 08:59:23;;;;;;;11.90;6.90;;;;;;;3.81;58.14;99596.70;233322;1217;138742;-62
2022/03/05 09:04:26;;;;;;;10.90;6.10;;;;;;;3.89;57.99;99599.16;233356;1217;138573;-65
2022/03/05 09:09:29;;;;;;;13.10;7.30;;;;;;;3.99;57.52;99603.27;233474;1217;139468;-60
2022/03/05 09:14:32;;;;;;;12.60;7.90;;;;;;;4.10;57.50;99604.56;233226;1217;139824;-61
2022/03/05 09:19:35;;;;;;;13.80;8.00;;;;;;;4.21;57.47;99604.80;233324;1216;139229;-60
2022/03/05 09:24:38;;;;;;;11.20;6.70;;;;;;;4.31;57.18;99604.71;233299;1217;138783;-60
2022/03/05 09:29:41;;;;;;;11.60;6.60;;;;;;;4.39;57.02;99599.56;233339;1217;138482;-61
2022/03/05 09:34:46;;;;;;;12.60;6.70;;;;;;;4.45;56.81;99605.52;233351;1217;138407;-60
2022/03/05 09:39:50;;;;;;;10.40;6.80;;;;;;;4.54;56.58;99610.05;233275;1217;139274;-61
2022/03/05 09:44:54;;;;;;;12.50;7.10;;;;;;;4.59;56.24;99604.09;233461;1215;138936;-64
2022/03/05 09:49:57;;;;;;;12.40;6.30;;;;;;;4.62;56.10;99603.30;233276;1217;138803;-62
2022/03/05 09:55:01;;;;;;;6.30;3.90;;;;;;;4.72;56.10;99603.88;233280;1217;138747;-62
2022/03/05 10:00:05;;;;;;;7.70;4.80;;;;;;;4.81;55.19;99607.15;233265;1217;138395;-62
2022/03/05 10:05:15;;;;;;;9.20;4.80;;;;;;;4.86;55.10;99610.14;233312;1217;138834;-61
2022/03/05 10:10:19;;;;;;;6.40;3.80;;;;;;;4.89;54.69;99609.18;233250;1217;139907;-62
2022/03/05 10:15:22;;;;;;;6.60;3.60;;;;;;;4.91;53.97;99612.46;233442;1217;138812;-60
2022/03/05 10:20:27;;;;;;;7.90;4.20;;;;;;;5.10;53.98;99607.16;233225;1217;138292;-60
2022/03/05 10:25:30;;;;;;;;;;;;;;;5.37;53.87;99600.13;233324;1217;138514;-61
2022/03/05 10:30:40;;;;;;;5.20;3.60;;;;;;;5.53;53.39;99601.58;233259;1217;124843;-59
2022/03/05 10:35:46;;;;;;;6.60;3.90;;;;;;;5.56;52.98;99601.45;233250;1217;138542;-63
2022/03/05 10:40:57;;;;;;;6.20;3.80;;;;;;;5.55;52.25;99596.61;233299;1217;138738;-62
2022/03/05 10:45:59;;;;;;;7.40;3.40;;;;;;;5.47;51.83;99597.37;233364;1217;138752;-59
2022/03/05 10:51:09;;;;;;;62.60;40.50;;;;;;;5.34;51.73;99599.53;233350;1217;138523;-60
2022/03/05 10:56:24;;;;;;;17.80;10.30;;;;;;;5.33;52.29;99597.48;233267;1217;139449;-62
2022/03/05 11:01:28;;;;;;;7.10;3.80;;;;;;;5.26;51.36;99594.86;233368;1217;139211;-60
2022/03/05 11:06:36;;;;;;;5.90;3.00;;;;;;;5.13;50.85;99594.20;233286;1217;138390;-62
2022/03/05 11:11:42;;;;;;;8.80;3.20;;;;;;;5.07;50.89;99599.14;233286;1217;150293;-60
2022/03/05 11:16:45;;;;;;;6.40;3.50;;;;;;;5.05;50.59;99597.27;233293;1217;138339;-60
2022/03/05 11:21:48;;;;;;;4.70;3.00;;;;;;;5.01;50.49;99599.51;232852;1217;139035;-60
2022/03/05 11:26:53;;;;;;;560.20;340.30;;;;;;;5.01;50.49;99599.33;233195;1219;138178;-60
2022/03/05 11:32:13;;;;;;;21.20;11.10;;;;;;;5.10;50.86;99598.90;233175;1219;138523;-61
2022/03/05 11:37:16;;;;;;;7.90;4.60;;;;;;;5.09;49.96;99596.26;233172;1219;138742;-63
2022/03/05 11:42:30;;;;;;;7.50;3.30;;;;;;;5.05;49.41;99594.12;233172;1219;138335;-61
2022/03/05 11:47:35;;;;;;;3.90;2.50;;;;;;;5.10;49.86;99586.39;233208;1217;138775;-61
2022/03/05 11:52:39;;;;;;;4.50;2.70;;;;;;;5.17;49.48;99583.53;233065;1218;138093;-64
2022/03/05 11:57:51;;;;;;;5.00;3.00;;;;;;;5.19;49.53;99585.05;233009;1219;138575;-64
2022/03/05 12:02:55;;;;;;;5.90;2.80;;;;;;;5.12;49.40;99587.38;233258;1217;137714;-62
2022/03/05 12:07:59;;;;;;;4.90;3.10;;;;;;;5.04;49.30;99589.73;233142;1217;138125;-64
2022/03/05 12:13:08;;;;;;;4.40;3.30;;;;;;;4.95;49.56;99584.38;233156;1217;138637;-63
2022/03/05 12:18:14;;;;;;;7.30;3.70;;;;;;;4.87;49.44;99593.59;233161;1218;138441;-60
2022/03/05 12:23:19;;;;;;;5.40;3.80;;;;;;;4.81;49.85;99592.54;233122;1219;138259;-61
2022/03/05 12:28:24;;;;;;;7.80;3.50;;;;;;;4.79;49.67;99584.16;233059;1219;138895;-59
2022/03/05 12:33:27;;;;;;;5.90;3.60;;;;;;;4.75;49.90;99586.56;233215;1217;138076;-61
2022/03/05 12:38:30;;;;;;;98.40;52.10;;;;;;;4.77;50.57;99586.52;233311;1217;138704;-61
2022/03/05 12:43:33;;;;;;;11.50;6.20;;;;;;;4.86;50.27;99589.77;233095;1217;141149;-58
2022/03/05 12:48:36;;;;;;;7.70;4.70;;;;;;;4.84;49.89;99594.55;233110;1217;138562;-62
2022/03/05 12:53:41;;;;;;;7.90;4.50;;;;;;;4.81;49.89;99596.77;233023;1219;232486;-63
2022/03/05 12:58:44;;;;;;;6.00;3.80;;;;;;;4.79;49.95;99595.09;233160;1217;138732;-61
2022/03/05 13:03:47;;;;;;;5.00;3.70;;;;;;;4.79;49.99;99590.86;233173;1217;138348;-62
2022/03/05 13:08:51;;;;;;;6.70;4.60;;;;;;;4.78;50.06;99584.89;233269;1218;138082;-64
2022/03/05 13:13:58;;;;;;;7.50;4.90;;;;;;;4.77;49.57;99581.42;233111;1217;138273;-61
2022/03/05 13:19:05;;;;;;;6.10;4.60;;;;;;;4.75;49.81;99592.01;233248;1217;138589;-62
2022/03/05 13:24:12;;;;;;;6.30;4.20;;;;;;;4.73;50.22;99586.62;233138;1217;138336;-63
2022/03/05 13:29:15;;;;;;;7.90;4.90;;;;;;;4.71;49.98;99588.26;233155;1217;139179;-60
2022/03/05 13:34:23;;;;;;;7.20;4.90;;;;;;;4.70;49.78;99584.08;233148;1219;138411;-60
2022/03/05 13:39:28;;;;;;;11.50;5.60;;;;;;;4.68;49.51;99579.91;233294;1217;138316;-61
2022/03/05 13:44:34;;;;;;;10.50;5.30;;;;;;;4.64;49.86;99576.00;233698;1217;138709;-61
2022/03/05 13:49:41;;;;;;;9.50;5.60;;;;;;;4.64;50.05;99579.17;233232;1218;137942;-63
2022/03/05 13:54:48;;;;;;;10.40;5.90;;;;;;;4.64;50.01;99579.70;233325;1217;139018;-59
2022/03/05 13:59:51;;;;;;;11.20;6.30;;;;;;;4.61;49.95;99585.04;233647;1217;138708;-64
2022/03/05 14:04:58;;;;;;;9.20;5.70;;;;;;;4.56;50.02;99591.86;233577;1217;138998;-63
2022/03/05 14:10:03;;;;;;;12.10;6.70;;;;;;;4.52;50.01;99592.17;233735;1217;140124;-63
2022/03/05 14:15:08;;;;;;;614.10;341.40;;;;;;;4.47;50.16;99597.22;233870;1217;138586;-63
2022/03/05 14:20:58;;;;;;;64.60;33.30;;;;;;;4.57;50.84;99599.94;229898;1236;657053;-61
2022/03/05 14:26:06;;;;;;;19.80;11.30;;;;;;;4.53;50.33;99600.38;233180;1223;138221;-63
2022/03/05 14:31:11;;;;;;;12.40;7.60;;;;;;;4.48;50.19;99604.39;232969;1221;137671;-62
2022/03/05 14:36:15;;;;;;;11.50;6.40;;;;;;;4.43;50.14;99611.20;232994;1223;137893;-60
2022/03/05 14:41:18;;;;;;;10.70;6.50;;;;;;;4.38;50.46;99620.14;233025;1223;138086;-62
2022/03/05 14:46:21;;;;;;;9.90;6.60;;;;;;;4.33;50.52;99627.48;233232;1223;138080;-60
2022/03/05 14:51:24;;;;;;;8.90;5.80;;;;;;;4.30;50.50;99628.24;233574;1221;137261;-58
2022/03/05 14:56:27;;;;;;;9.30;5.60;;;;;;;4.28;50.51;99632.36;233271;1223;137652;-60
2022/03/05 15:01:31;;;;;;;11.80;6.10;;;;;;;4.25;50.52;99626.45;233340;1220;137368;-60
2022/03/05 15:06:34;;;;;;;8.90;5.70;;;;;;;4.22;50.67;99621.08;233165;1220;138277;-61
2022/03/05 15:11:38;;;;;;;9.80;6.70;;;;;;;4.20;50.56;99624.83;233514;1220;138528;-60
2022/03/05 15:16:41;;;;;;;9.30;6.20;;;;;;;4.19;50.81;99623.28;233380;1220;138064;-58
2022/03/05 15:21:44;;;;;;;10.20;6.60;;;;;;;4.17;50.51;99617.02;233549;1220;137431;-59
2022/03/05 15:26:47;;;;;;;217.10;120.70;;;;;;;4.16;50.87;99614.07;233407;1220;138954;-60
2022/03/05 15:31:50;;;;;;;33.40;13.80;;;;;;;4.22;51.03;99600.73;233249;1221;137933;-60
2022/03/05 15:36:55;;;;;;;16.30;8.70;;;;;;;4.22;50.64;99595.80;233319;1220;138205;-59
2022/03/05 15:41:57;;;;;;;14.90;8.10;;;;;;;4.19;50.71;99587.64;233397;1221;137900;-61
2022/03/05 15:47:00;;;;;;;16.30;8.30;;;;;;;4.14;50.67;99591.10;233347;1221;138673;-62
2022/03/05 15:52:04;;;;;;;13.30;8.20;;;;;;;4.12;50.90;99593.63;233419;1221;138174;-60
2022/03/05 15:57:07;;;;;;;16.20;8.20;;;;;;;4.10;50.95;99598.58;233808;1219;138473;-58
2022/03/05 16:02:10;;;;;;;14.80;8.30;;;;;;;4.08;50.94;99594.08;233572;1217;138284;-60
2022/03/05 16:07:13;;;;;;;15.20;8.70;;;;;;;4.05;51.11;99598.90;233646;1219;138196;-60
2022/03/05 16:12:17;;;;;;;12.90;8.20;;;;;;;4.03;51.31;99602.11;233678;1218;140260;-58
2022/03/05 16:18:15;;;;;;;15.80;9.10;;;;;;;3.99;51.18;99602.90;233945;1211;138433;31
2022/03/05 16:27:13;;;;;;;19.10;10.10;;;;;;;3.97;51.37;99601.73;230147;1233;663023;-65
2022/03/05 16:32:16;;;;;;;118.50;66.90;;;;;;;3.95;51.65;99608.98;233170;1223;138002;-65
2022/03/05 16:37:19;;;;;;;25.40;14.00;;;;;;;4.02;51.91;99610.90;232952;1223;139149;-63
2022/03/05 16:42:43;;;;;;;21.20;10.90;;;;;;;3.97;51.60;99618.95;232939;1222;138595;-62
2022/03/05 16:47:46;;;;;;;17.30;10.00;;;;;;;3.90;51.73;99622.28;232772;1223;139311;-65
2022/03/05 16:52:50;;;;;;;18.20;10.20;;;;;;;3.87;51.84;99625.34;233025;1223;138840;-63
2022/03/05 16:57:53;;;;;;;18.80;10.10;;;;;;;3.86;51.61;99628.16;232925;1223;138006;-65
2022/03/05 17:02:56;;;;;;;259.10;169.90;;;;;;;3.85;51.96;99632.59;232696;1223;139540;-67
2022/03/05 17:08:00;;;;;;;33.30;19.60;;;;;;;3.97;52.61;99631.92;233296;1220;138531;-65
2022/03/05 17:13:03;;;;;;;20.20;12.00;;;;;;;4.02;52.19;99632.32;233385;1220;137807;-65
2022/03/05 17:18:06;;;;;;;24.20;12.50;;;;;;;3.94;52.02;99632.18;233285;1220;138103;-65
2022/03/05 17:23:09;;;;;;;20.90;12.00;;;;;;;3.90;52.04;99631.05;233206;1222;139434;-66
2022/03/05 17:28:12;;;;;;;26.80;12.80;;;;;;;3.84;52.12;99625.60;233311;1222;138606;-66
2022/03/05 17:33:15;;;;;;;18.10;11.50;;;;;;;3.80;52.12;99621.83;233341;1222;138023;-64
2022/03/05 17:38:23;;;;;;;27.20;14.30;;;;;;;3.78;52.32;99626.61;233111;1222;138287;-65
2022/03/05 17:43:27;;;;;;;27.50;14.90;;;;;;;3.76;52.37;99621.93;233200;1222;139027;-64
2022/03/05 17:48:30;;;;;;;32.10;17.00;;;;;;;3.73;52.59;99630.42;233224;1221;138018;-66
2022/03/05 17:53:33;;;;;;;35.80;18.20;;;;;;;3.70;52.58;99635.95;233365;1221;138226;-65
2022/03/05 17:58:36;;;;;;;182.20;126.80;;;;;;;3.73;53.21;99636.39;233273;1222;138459;-64
2022/03/05 18:03:40;;;;;;;50.90;30.80;;;;;;;3.95;53.80;99635.84;233394;1222;138403;-64
2022/03/05 18:08:43;;;;;;;39.20;23.40;;;;;;;3.99;53.28;99634.69;233306;1221;140328;-66
2022/03/05 18:13:46;;;;;;;37.70;22.20;;;;;;;3.92;53.04;99642.41;233361;1221;138330;-64
2022/03/05 18:18:49;;;;;;;38.40;21.40;;;;;;;3.82;53.12;99652.14;233222;1222;138350;-63
2022/03/05 18:23:53;;;;;;;43.90;23.70;;;;;;;3.73;53.37;99654.30;233280;1222;138137;-63
2022/03/05 18:28:56;;;;;;;42.10;23.20;;;;;;;3.69;53.39;99653.86;233243;1221;139635;-65
2022/03/05 18:34:01;;;;;;;44.60;24.00;;;;;;;3.66;53.61;99656.20;233353;1222;138363;-64
2022/03/05 18:39:04;;;;;;;47.50;24.80;;;;;;;3.64;53.68;99659.44;233343;1222;138397;-63
2022/03/05 18:44:07;;;;;;;46.60;24.30;;;;;;;3.60;53.83;99661.28;233322;1222;138564;-64
2022/03/05 18:49:10;;;;;;;41.50;22.40;;;;;;;3.55;54.01;99659.64;233331;1222;139037;-66
2022/03/05 18:54:13;;;;;;;36.20;20.80;;;;;;;3.52;54.27;99658.30;233358;1221;138753;-64
2022/03/05 18:59:17;;;;;;;37.20;21.60;;;;;;;3.49;54.36;99660.13;233101;1222;138680;-63
2022/03/05 19:04:20;;;;;;;37.40;21.50;;;;;;;3.48;54.61;99660.52;233103;1222;139557;-64
2022/03/05 19:09:23;;;;;;;40.10;21.70;;;;;;;3.46;54.61;99665.80;233359;1222;138081;-66
2022/03/05 19:14:26;;;;;;;38.20;21.60;;;;;;;3.46;54.80;99666.33;233213;1219;138821;-66
2022/03/05 19:19:34;;;;;;;36.80;22.20;;;;;;;3.44;55.06;99671.83;233377;1219;138595;-66
2022/03/05 19:24:37;;;;;;;156.70;103.20;;;;;;;3.42;55.30;99676.95;233220;1220;138244;-66
2022/03/05 19:29:40;;;;;;;66.00;39.70;;;;;;;3.56;56.26;99680.50;233319;1219;139124;-63
2022/03/05 19:34:43;;;;;;;41.00;23.60;;;;;;;3.72;56.13;99681.52;233069;1219;138640;-66
2022/03/05 19:39:46;;;;;;;39.60;22.10;;;;;;;3.69;55.60;99684.59;232927;1220;138825;-65
2022/03/05 19:44:50;;;;;;;37.80;22.80;;;;;;;3.61;55.64;99685.96;232743;1221;138825;-65
2022/03/05 19:49:53;;;;;;;36.50;21.20;;;;;;;3.53;55.81;99692.83;233197;1220;138811;-63
2022/03/05 19:54:56;;;;;;;35.40;20.50;;;;;;;3.48;55.69;99695.94;233166;1219;138805;-64
2022/03/05 19:59:59;;;;;;;34.00;20.90;;;;;;;3.44;55.90;99698.30;232770;1221;138750;-65
2022/03/05 20:05:02;;;;;;;35.10;21.00;;;;;;;3.39;56.04;99696.14;232807;1221;139308;-64
2022/03/05 20:10:06;;;;;;;32.40;19.80;;;;;;;3.35;56.05;99696.41;233005;1220;139012;-64
2022/03/05 20:15:11;;;;;;;33.80;21.50;;;;;;;3.32;55.96;99704.89;232803;1221;139115;-63
2022/03/05 20:20:17;;;;;;;34.10;20.80;;;;;;;3.32;56.12;99704.36;232829;1221;139097;-64
2022/03/05 20:25:20;;;;;;;35.00;20.70;;;;;;;3.31;56.32;99705.06;232737;1222;138369;-63
2022/03/05 20:30:23;;;;;;;34.20;20.20;;;;;;;3.30;56.18;99703.89;232807;1221;138120;-62
2022/03/05 20:35:29;;;;;;;38.50;22.20;;;;;;;3.28;56.34;99705.14;232886;1220;138461;-65
2022/03/05 20:40:32;;;;;;;;;;;;;;;3.27;56.42;99701.48;232962;1221;138329;-64
2022/03/05 20:45:36;;;;;;;37.00;21.60;;;;;;;3.33;56.87;99699.09;233060;1221;124778;-64
2022/03/05 20:50:39;;;;;;;38.80;22.50;;;;;;;3.32;56.34;99700.34;232923;1221;138498;-63
2022/03/05 20:55:42;;;;;;;46.90;27.60;;;;;;;3.29;56.45;99702.67;232968;1221;138948;-63
2022/03/05 21:00:45;;;;;;;44.40;26.00;;;;;;;3.25;56.37;99705.02;232877;1221;139300;-64
2022/03/05 21:05:49;;;;;;;47.50;26.90;;;;;;;3.25;56.55;99704.88;232992;1220;138171;-65
2022/03/05 21:10:53;;;;;;;44.40;26.30;;;;;;;3.24;56.69;99704.70;232900;1220;139539;-67
2022/03/05 21:15:56;;;;;;;45.40;25.90;;;;;;;3.22;56.64;99702.63;232956;1221;138536;-68
2022/03/05 21:20:59;;;;;;;49.50;26.60;;;;;;;3.23;56.73;99701.40;232904;1220;138257;-64
2022/03/05 21:26:04;;;;;;;46.50;25.20;;;;;;;3.23;56.80;99697.36;232875;1220;140388;-65
2022/03/05 21:31:07;;;;;;;40.20;23.50;;;;;;;3.21;56.70;99699.34;232870;1220;139115;-63
2022/03/05 21:36:10;;;;;;;43.40;24.60;;;;;;;3.20;56.70;99698.31;232727;1221;138336;-63
2022/03/05 21:41:13;;;;;;;43.80;24.60;;;;;;;3.19;56.96;99701.13;232895;1220;139920;-65
2022/03/05 21:46:16;;;;;;;42.90;25.00;;;;;;;3.18;56.68;99702.75;233057;1220;138761;-66
2022/03/05 21:51:20;;;;;;;45.40;25.60;;;;;;;3.13;56.71;99698.10;232994;1221;138632;-64
2022/03/05 21:56:24;;;;;;;45.20;25.20;;;;;;;3.11;56.90;99694.13;232940;1221;138462;-65
2022/03/05 22:01:27;;;;;;;47.60;25.70;;;;;;;3.10;57.04;99698.00;232892;1221;138496;-66
2022/03/05 22:06:30;;;;;;;45.70;25.30;;;;;;;3.06;57.13;99693.52;233016;1220;139114;-68
2022/03/05 22:11:34;;;;;;;44.20;25.60;;;;;;;3.03;57.21;99697.61;232967;1220;139458;-64
2022/03/05 22:16:37;;;;;;;42.20;25.10;;;;;;;3.03;57.32;99696.58;232943;1221;138167;-65
2022/03/05 22:21:41;;;;;;;49.30;26.50;;;;;;;3.01;57.33;99690.46;233067;1221;137758;-66
2022/03/05 22:26:44;;;;;;;46.30;26.30;;;;;;;3.01;57.52;99693.62;232857;1222;139232;-66
2022/03/05 22:31:47;;;;;;;45.10;25.30;;;;;;;2.98;57.58;99696.67;233085;1220;138412;-65
2022/03/05 22:36:51;;;;;;;43.50;24.40;;;;;;;2.93;57.55;99700.63;233022;1221;138337;-65
2022/03/05 22:41:55;;;;;;;47.50;26.70;;;;;;;2.90;57.86;99694.90;232990;1220;138151;-65
2022/03/05 22:46:58;;;;;;;44.60;24.90;;;;;;;2.88;57.78;99687.76;232980;1220;138354;-65
2022/03/05 22:52:01;;;;;;;44.30;25.80;;;;;;;2.87;57.79;99684.98;233063;1220;138845;-63
2022/03/05 22:57:04;;;;;;;44.50;25.60;;;;;;;2.85;58.00;99680.83;232986;1220;138202;-63
2022/03/05 23:12:51;;;;;;;40.40;24.30;;;;;;;2.80;58.22;99673.39;232992;1221;138471;-64
2022/03/05 23:17:55;;;;;;;49.10;27.50;;;;;;;2.77;58.11;99665.91;232917;1221;139684;-66
2022/03/05 23:22:57;;;;;;;49.60;27.20;;;;;;;2.78;58.38;99664.47;232931;1221;138442;-66
2022/03/05 23:28:01;;;;;;;45.80;26.90;;;;;;;2.77;58.43;99658.36;233313;1220;138232;-65